Time;durP1;ratioP1;P1;durP2;ratioP2;P2;SDS_P1;SDS_P2;PMS_P1;PMS_P2;Temp;Humidity;BMP_temperature;BMP_pressure;BME280_temperature;BME280_humidity;BME280_pressure;Samples;Min_cycle;Max_cycle;Signal;HPM_P1;HPM_P2
2020/12/16 05:00:13;;;;;;;23.67;20.83;;;7.80;99.90;;;;;;6052654;23;20406;31
2020/12/16 05:02:40;;;;;;;28.03;22.57;;;7.80;99.90;;;;;;4955136;28;20690;-63
2020/12/16 05:05:06;;;;;;;26.23;22.17;;;7.70;99.90;;;;;;4956933;29;20456;-64
2020/12/16 05:07:32;;;;;;;27.63;22.20;;;7.70;99.90;;;;;;4957475;29;20463;-65
2020/12/16 05:09:58;;;;;;;24.83;22.27;;;7.70;99.90;;;;;;4956780;29;20510;-65
2020/12/16 05:12:25;;;;;;;27.57;23.10;;;7.80;99.90;;;;;;4957297;29;20475;-64
2020/12/16 05:14:51;;;;;;;31.93;23.90;;;7.70;99.90;;;;;;4957046;29;20462;-65
2020/12/16 05:17:18;;;;;;;25.43;21.57;;;7.70;99.90;;;;;;4957327;28;20567;-64
2020/12/16 05:19:45;;;;;;;27.37;23.20;;;7.70;99.90;;;;;;4956536;29;20950;-65
2020/12/16 05:22:17;;;;;;;29.80;22.77;;;7.80;99.90;;;;;;4956848;29;20475;-64
2020/12/16 05:24:46;;;;;;;29.10;23.00;;;7.70;99.90;;;;;;4956881;29;20776;-65
2020/12/16 05:27:21;;;;;;;28.53;23.10;;;7.70;99.90;;;;;;4956689;29;20455;-65
2020/12/16 05:29:50;;;;;;;28.67;24.37;;;7.70;99.90;;;;;;4956966;29;20474;-63
2020/12/16 05:32:24;;;;;;;30.40;24.00;;;7.60;99.90;;;;;;4956472;29;20998;-64
2020/12/16 05:34:51;;;;;;;25.47;22.50;;;7.50;99.90;;;;;;4956504;28;20443;-65
2020/12/16 05:37:32;;;;;;;26.17;23.20;;;7.50;99.90;;;;;;4956461;28;20463;-64
2020/12/16 05:40:01;;;;;;;30.60;23.57;;;7.40;99.90;;;;;;4955946;28;20435;-65
2020/12/16 05:42:28;;;;;;;34.43;24.97;;;7.40;99.90;;;;;;4956123;28;20479;-65
2020/12/16 05:44:57;;;;;;;27.93;24.13;;;7.40;99.90;;;;;;4956077;29;20965;-64
2020/12/16 05:47:25;;;;;;;28.43;23.60;;;7.40;99.90;;;;;;4956418;28;20467;-64
2020/12/16 05:49:51;;;;;;;31.77;24.90;;;7.40;99.90;;;;;;4956421;29;20475;-65
2020/12/16 05:52:17;;;;;;;31.47;25.67;;;7.30;99.90;;;;;;4956001;28;20519;-64
2020/12/16 05:54:49;;;;;;;31.03;24.93;;;7.30;99.90;;;;;;4956026;29;20451;-65
2020/12/16 05:57:18;;;;;;;29.87;23.87;;;7.20;99.90;;;;;;4956169;28;20462;-65
2020/12/16 06:00:00;;;;;;;31.23;24.87;;;7.10;99.90;;;;;;4955815;28;20462;-64
2020/12/16 06:02:34;;;;;;;32.70;25.73;;;7.20;99.90;;;;;;4955575;28;20530;-63
2020/12/16 06:05:00;;;;;;;32.10;24.27;;;7.20;99.90;;;;;;4956794;29;20448;-63
2020/12/16 06:07:28;;;;;;;32.27;24.23;;;7.20;99.90;;;;;;4956969;29;20499;-63
2020/12/16 06:09:55;;;;;;;30.70;24.20;;;7.20;99.90;;;;;;4955775;28;21009;-63
2020/12/16 06:12:27;;;;;;;29.10;24.33;;;7.20;99.90;;;;;;4955656;29;20475;-64
2020/12/16 06:15:04;;;;;;;25.70;22.60;;;7.20;99.90;;;;;;4956279;29;20440;-65
2020/12/16 06:17:35;;;;;;;31.40;24.60;;;7.20;99.90;;;;;;4956363;28;20444;-63
2020/12/16 06:20:03;;;;;;;28.77;24.23;;;7.20;99.90;;;;;;4956052;28;20495;-64
2020/12/16 06:22:33;;;;;;;30.10;24.60;;;7.20;99.90;;;;;;4955992;29;20476;-65
2020/12/16 06:25:04;;;;;;;30.43;24.20;;;7.20;99.90;;;;;;4955976;29;20444;-65
2020/12/16 06:27:37;;;;;;;25.60;22.37;;;7.20;99.90;;;;;;4956012;29;20444;-65
2020/12/16 06:30:07;;;;;;;25.13;21.87;;;7.20;99.90;;;;;;4956081;29;20491;-63
2020/12/16 06:32:41;;;;;;;31.10;24.37;;;7.20;99.90;;;;;;4955673;29;20488;-64
2020/12/16 06:35:12;;;;;;;28.83;22.87;;;7.20;99.90;;;;;;4955960;29;20446;-63
2020/12/16 06:37:38;;;;;;;27.10;22.83;;;7.20;99.90;;;;;;4955760;29;20440;-65
2020/12/16 06:40:04;;;;;;;26.93;22.93;;;7.10;99.90;;;;;;4955705;28;20451;-64
2020/12/16 06:42:32;;;;;;;24.87;21.43;;;7.10;99.90;;;;;;4956173;29;20484;-65
2020/12/16 06:45:12;;;;;;;25.93;22.70;;;7.10;99.90;;;;;;4956332;28;20498;-64
2020/12/16 06:47:39;;;;;;;25.83;20.80;;;7.20;99.90;;;;;;4956624;29;20462;-64
2020/12/16 06:50:19;;;;;;;24.77;21.27;;;7.20;99.90;;;;;;4957094;28;20490;-65
2020/12/16 06:52:46;;;;;;;24.03;19.70;;;7.20;99.90;;;;;;4959231;29;20451;-63
2020/12/16 06:55:12;;;;;;;24.87;19.90;;;7.20;99.90;;;;;;4959949;29;20515;-65
2020/12/16 06:57:47;;;;;;;22.17;18.67;;;7.10;99.90;;;;;;4958787;28;20455;-64
2020/12/16 07:00:21;;;;;;;23.53;18.60;;;7.00;99.90;;;;;;4958888;29;20493;-64
2020/12/16 07:02:49;;;;;;;24.10;19.53;;;6.90;99.90;;;;;;4959284;29;20443;-64
2020/12/16 07:05:39;;;;;;;25.90;21.13;;;6.70;99.90;;;;;;4959666;29;20474;-64
2020/12/16 07:08:06;;;;;;;23.93;19.70;;;6.70;99.90;;;;;;4959507;29;20442;-63
2020/12/16 07:10:56;;;;;;;24.30;20.17;;;6.70;99.90;;;;;;4959728;29;21016;-64
2020/12/16 07:13:35;;;;;;;21.00;18.73;;;6.70;99.90;;;;;;4959019;29;20432;-65
2020/12/16 07:16:07;;;;;;;23.97;18.83;;;6.80;99.90;;;;;;4959003;28;20443;-65
2020/12/16 07:18:47;;;;;;;26.10;20.80;;;6.80;99.90;;;;;;4958754;28;20447;-63
2020/12/16 07:21:35;;;;;;;25.83;20.27;;;6.80;99.90;;;;;;4958859;29;20471;-65
2020/12/16 07:24:07;;;;;;;21.97;18.93;;;6.80;99.90;;;;;;4958393;29;20447;-65
2020/12/16 07:26:34;;;;;;;26.03;20.07;;;6.80;99.90;;;;;;4958261;29;20459;-64
2020/12/16 07:29:20;;;;;;;26.53;18.40;;;6.80;99.90;;;;;;4957966;28;21009;-63
2020/12/16 07:32:00;;;;;;;21.63;17.90;;;6.90;99.90;;;;;;4958040;29;20476;-63
2020/12/16 07:34:28;;;;;;;24.23;20.00;;;6.90;99.90;;;;;;4958072;29;20454;-63
2020/12/16 07:36:57;;;;;;;21.77;18.13;;;6.90;99.90;;;;;;4957806;29;20455;-63
2020/12/16 07:39:24;;;;;;;25.20;19.83;;;6.80;99.90;;;;;;4957603;29;20966;-64
2020/12/16 07:41:50;;;;;;;22.50;19.63;;;6.80;99.90;;;;;;4957946;28;20483;-63
2020/12/16 07:44:16;;;;;;;23.73;18.70;;;6.80;99.90;;;;;;4957683;29;20471;-62
2020/12/16 07:46:43;;;;;;;18.40;16.40;;;6.80;99.90;;;;;;4957673;29;20455;-63
2020/12/16 07:49:13;;;;;;;18.40;16.43;;;7.30;99.90;;;;;;4957585;29;20467;-62
2020/12/16 07:51:40;;;;;;;20.40;15.80;;;7.70;99.90;;;;;;4957617;28;20838;-63
2020/12/16 07:54:06;;;;;;;17.50;15.70;;;7.80;99.90;;;;;;4957882;29;20459;-63
2020/12/16 07:56:32;;;;;;;18.17;16.37;;;7.80;99.90;;;;;;4957662;28;20462;-63
2020/12/16 07:59:11;;;;;;;17.43;15.63;;;7.90;99.90;;;;;;4957971;29;20482;-64
2020/12/16 08:01:38;;;;;;;17.27;15.30;;;7.70;99.90;;;;;;4956828;28;20484;-63
2020/12/16 08:04:04;;;;;;;17.63;15.87;;;7.70;99.90;;;;;;4957467;29;20459;-63
2020/12/16 08:06:31;;;;;;;15.50;14.00;;;7.60;99.90;;;;;;4957603;29;20456;-64
2020/12/16 08:08:58;;;;;;;15.80;14.10;;;7.50;99.90;;;;;;4957596;29;20467;-62
2020/12/16 08:11:25;;;;;;;15.37;13.87;;;7.50;99.90;;;;;;4957209;28;20507;-65
2020/12/16 08:13:52;;;;;;;14.63;13.13;;;7.50;99.90;;;;;;4958073;29;20459;-65
2020/12/16 08:16:18;;;;;;;14.43;13.03;;;7.40;99.90;;;;;;4958437;29;20469;-63
2020/12/16 08:18:46;;;;;;;13.50;12.10;;;7.30;99.90;;;;;;4958771;28;20458;-64
2020/12/16 08:21:16;;;;;;;14.20;12.90;;;7.30;99.90;;;;;;4958616;29;20472;-65
2020/12/16 08:23:43;;;;;;;12.67;11.47;;;7.30;99.90;;;;;;4957743;28;20467;-64
2020/12/16 08:26:10;;;;;;;13.10;11.80;;;7.10;99.90;;;;;;4957887;28;20467;-64
2020/12/16 08:28:36;;;;;;;13.90;12.33;;;7.10;99.90;;;;;;4957509;28;20460;-63
2020/12/16 08:31:03;;;;;;;14.33;12.83;;;7.10;99.90;;;;;;4963807;29;20849;-63
2020/12/16 08:33:30;;;;;;;14.57;13.17;;;7.10;99.90;;;;;;4964454;29;20460;-64
2020/12/16 08:36:00;;;;;;;13.30;12.03;;;7.20;99.90;;;;;;4967829;28;20459;-63
2020/12/16 08:38:29;;;;;;;14.73;13.33;;;7.20;99.90;;;;;;4963933;29;20447;-64
2020/12/16 08:40:56;;;;;;;13.80;12.50;;;7.20;99.90;;;;;;4966524;29;20479;-63
2020/12/16 08:43:26;;;;;;;14.80;13.13;;;7.30;99.90;;;;;;4962459;28;20471;-65
2020/12/16 08:46:00;;;;;;;14.80;13.40;;;7.40;99.90;;;;;;4960893;29;20466;-64
2020/12/16 08:48:27;;;;;;;14.03;12.47;;;7.50;99.90;;;;;;4957538;29;20455;-64
2020/12/16 08:51:07;;;;;;;15.57;13.97;;;7.60;99.90;;;;;;4957828;29;20490;-63
2020/12/16 08:53:49;;;;;;;12.90;11.60;;;7.70;99.90;;;;;;4959065;29;20808;-65
2020/12/16 08:56:22;;;;;;;14.97;13.37;;;7.80;99.90;;;;;;4957317;28;20444;-64
2020/12/16 08:59:00;;;;;;;13.17;11.97;;;7.90;99.90;;;;;;4966671;29;20467;-64
2020/12/16 09:01:26;;;;;;;12.67;11.47;;;7.90;99.90;;;;;;4967020;29;20525;-64
2020/12/16 09:03:53;;;;;;;12.20;11.00;;;8.00;99.90;;;;;;4966233;29;20512;-64
2020/12/16 09:06:19;;;;;;;11.47;10.40;;;8.10;99.90;;;;;;4964979;29;20954;-63
2020/12/16 09:08:45;;;;;;;11.10;10.20;;;8.10;99.90;;;;;;4957622;29;20467;-63
2020/12/16 09:11:12;;;;;;;11.60;10.60;;;8.10;99.90;;;;;;4956593;28;20495;-65
2020/12/16 09:13:38;;;;;;;10.80;9.90;;;8.20;99.90;;;;;;4956502;28;20455;-63
2020/12/16 09:16:05;;;;;;;10.80;9.80;;;8.20;99.90;;;;;;4956775;29;20788;-63
2020/12/16 09:18:32;;;;;;;11.37;10.33;;;8.20;99.90;;;;;;4957088;29;20970;-64
2020/12/16 09:20:59;;;;;;;10.53;9.67;;;8.50;99.90;;;;;;4956563;29;20867;-63
2020/12/16 09:23:27;;;;;;;12.43;11.23;;;8.70;99.90;;;;;;4956586;29;20862;-64
2020/12/16 09:25:55;;;;;;;10.17;9.13;;;8.90;99.90;;;;;;4956724;28;20466;-63
2020/12/16 09:28:31;;;;;;;10.57;9.67;;;9.10;99.90;;;;;;4956622;29;20457;-63
2020/12/16 09:30:57;;;;;;;10.60;9.63;;;9.10;99.90;;;;;;4956184;29;20490;-63
2020/12/16 09:33:24;;;;;;;10.50;9.40;;;9.10;99.90;;;;;;4956589;29;20463;-64
2020/12/16 09:35:53;;;;;;;11.33;10.23;;;9.10;99.90;;;;;;4956740;29;20796;-66
2020/12/16 09:38:20;;;;;;;10.33;9.43;;;9.30;99.90;;;;;;4956601;29;20463;-65
2020/12/16 09:40:47;;;;;;;9.20;8.30;;;9.30;99.90;;;;;;4956917;29;20476;-64
2020/12/16 09:43:14;;;;;;;9.10;8.40;;;9.40;99.90;;;;;;4956151;28;20487;-65
2020/12/16 09:45:42;;;;;;;9.77;8.90;;;9.40;99.90;;;;;;4955767;29;20984;-64
2020/12/16 09:48:08;;;;;;;10.27;9.37;;;9.60;99.90;;;;;;4956311;28;20459;-64
2020/12/16 09:50:36;;;;;;;9.07;8.27;;;9.70;99.90;;;;;;4956042;29;20488;-63
2020/12/16 09:53:04;;;;;;;10.77;9.47;;;9.80;99.90;;;;;;4956165;28;20470;-63
2020/12/16 09:55:36;;;;;;;9.40;8.47;;;9.90;99.90;;;;;;4955854;29;20455;-65
2020/12/16 09:58:04;;;;;;;9.47;8.67;;;10.10;99.90;;;;;;4955735;28;20462;-65
2020/12/16 10:00:31;;;;;;;9.67;8.80;;;10.10;99.90;;;;;;4955685;28;20463;-65
2020/12/16 10:02:58;;;;;;;9.13;8.37;;;10.20;99.90;;;;;;4955400;29;20447;-65
2020/12/16 10:05:25;;;;;;;9.23;8.43;;;10.10;99.90;;;;;;4955856;29;20494;-65
2020/12/16 10:07:52;;;;;;;8.80;8.03;;;10.30;99.90;;;;;;4955780;29;20474;-65
2020/12/16 10:10:19;;;;;;;9.00;8.20;;;10.60;99.90;;;;;;4955917;29;20483;-65
2020/12/16 10:12:45;;;;;;;11.43;7.70;;;10.70;99.90;;;;;;4955354;29;20459;-65
2020/12/16 10:15:12;;;;;;;9.13;8.23;;;10.80;99.90;;;;;;4955427;29;20911;-63
2020/12/16 10:17:38;;;;;;;7.80;7.20;;;11.00;99.90;;;;;;4956036;29;20514;-66
2020/12/16 10:20:05;;;;;;;7.67;6.97;;;11.10;99.90;;;;;;4956043;29;20451;-63
2020/12/16 10:22:31;;;;;;;8.60;7.80;;;11.20;99.90;;;;;;4956076;28;20479;-66
2020/12/16 10:24:58;;;;;;;8.53;7.80;;;11.30;99.90;;;;;;4957110;28;20460;-64
2020/12/16 10:27:24;;;;;;;8.33;7.63;;;11.40;99.90;;;;;;4960176;29;20867;-64
2020/12/16 10:29:52;;;;;;;7.40;6.73;;;11.60;99.90;;;;;;4959997;29;20480;-63
2020/12/16 10:32:20;;;;;;;7.10;6.50;;;11.90;99.90;;;;;;4959096;29;20507;-65
2020/12/16 10:34:46;;;;;;;7.67;7.07;;;12.30;99.90;;;;;;4959812;29;20506;-64
2020/12/16 10:37:13;;;;;;;6.83;6.33;;;13.10;99.90;;;;;;4959581;29;20874;-64
2020/12/16 10:39:39;;;;;;;7.37;6.77;;;13.90;99.90;;;;;;4959903;29;20458;-65
2020/12/16 10:42:07;;;;;;;7.33;6.70;;;14.70;99.90;;;;;;4959770;28;20479;-64
2020/12/16 10:44:33;;;;;;;7.13;6.63;;;15.40;99.90;;;;;;4959721;28;20537;-65
2020/12/16 10:46:59;;;;;;;7.17;6.60;;;15.50;99.90;;;;;;4959308;29;20462;-65
2020/12/16 10:49:27;;;;;;;11.93;9.70;;;15.50;99.90;;;;;;4959368;29;20459;-65
2020/12/16 10:51:55;;;;;;;12.10;10.87;;;15.40;99.90;;;;;;4959075;28;21060;-65
2020/12/16 10:54:22;;;;;;;9.00;8.30;;;15.10;99.90;;;;;;4959181;29;20459;-63
2020/12/16 10:56:53;;;;;;;9.40;8.60;;;14.60;99.90;;;;;;4959510;28;20463;-65
2020/12/16 10:59:19;;;;;;;10.27;9.20;;;14.20;99.90;;;;;;4959192;29;20455;-64
2020/12/16 11:01:47;;;;;;;9.80;8.97;;;13.60;99.90;;;;;;4959178;28;20491;-65
2020/12/16 11:04:13;;;;;;;10.27;9.00;;;12.90;99.90;;;;;;4959355;29;20494;-65
2020/12/16 11:06:45;;;;;;;9.90;8.90;;;12.60;99.90;;;;;;4959116;28;20461;-65
2020/12/16 11:09:12;;;;;;;10.70;9.70;;;12.40;99.90;;;;;;4958821;29;20447;-63
2020/12/16 11:11:40;;;;;;;10.63;9.63;;;12.20;99.90;;;;;;4958845;28;21002;-66
2020/12/16 11:14:06;;;;;;;10.83;9.90;;;12.00;99.90;;;;;;4959196;29;20455;-65
2020/12/16 11:16:32;;;;;;;10.93;9.87;;;12.00;99.90;;;;;;4959144;28;20464;-66
2020/12/16 11:18:59;;;;;;;11.43;10.43;;;12.00;99.90;;;;;;4959588;29;20451;-65
2020/12/16 11:21:26;;;;;;;10.97;9.97;;;11.90;99.90;;;;;;4959226;29;20474;-65
2020/12/16 11:23:52;;;;;;;17.53;11.80;;;11.90;99.90;;;;;;4958764;29;20950;-64
2020/12/16 11:26:19;;;;;;;12.83;11.60;;;12.00;99.90;;;;;;4959233;29;20532;-64
2020/12/16 11:28:45;;;;;;;10.57;9.57;;;12.10;99.90;;;;;;4959094;28;20467;-63
2020/12/16 11:31:11;;;;;;;12.67;11.37;;;12.10;99.90;;;;;;4959859;28;20494;-64
2020/12/16 11:33:37;;;;;;;11.50;9.40;;;12.20;99.90;;;;;;4959128;28;20459;-64
2020/12/16 11:36:09;;;;;;;10.43;9.47;;;12.30;99.90;;;;;;4958995;28;20822;-64
2020/12/16 11:38:35;;;;;;;9.90;9.00;;;12.40;99.90;;;;;;4959518;29;20451;-64
2020/12/16 11:41:01;;;;;;;10.60;9.60;;;12.50;99.90;;;;;;4960490;29;20820;-63
2020/12/16 11:43:28;;;;;;;10.53;9.53;;;12.60;99.90;;;;;;4958768;29;20458;-66
2020/12/16 11:45:54;;;;;;;10.80;9.90;;;12.60;99.90;;;;;;4959873;28;20850;-63
2020/12/16 11:48:20;;;;;;;10.00;9.00;;;12.60;99.90;;;;;;4960407;29;20467;-63
2020/12/16 11:50:47;;;;;;;10.13;9.33;;;12.60;99.90;;;;;;4960492;29;20495;-64
2020/12/16 11:53:14;;;;;;;12.60;10.67;;;12.60;99.90;;;;;;4960206;29;20455;-67
2020/12/16 11:55:40;;;;;;;11.57;10.67;;;12.60;99.90;;;;;;4960213;29;20550;-63
2020/12/16 11:58:07;;;;;;;10.90;9.90;;;12.60;99.90;;;;;;4959120;29;20455;-64
2020/12/16 12:00:33;;;;;;;10.10;9.13;;;12.70;99.90;;;;;;4959208;28;20857;-64
2020/12/16 12:02:59;;;;;;;13.63;10.00;;;12.60;99.90;;;;;;4958927;29;20848;-63
2020/12/16 12:05:25;;;;;;;11.53;10.50;;;12.70;99.90;;;;;;4961131;29;20462;-63
2020/12/16 12:07:51;;;;;;;11.40;10.17;;;12.70;99.90;;;;;;4960811;29;20946;-63
2020/12/16 12:10:18;;;;;;;11.00;10.00;;;12.70;99.90;;;;;;4961186;28;20479;-64
2020/12/16 12:12:45;;;;;;;10.77;9.67;;;12.80;99.90;;;;;;4960265;29;20836;-63
2020/12/16 12:15:11;;;;;;;9.33;8.43;;;12.80;99.90;;;;;;4961539;29;20455;-64
2020/12/16 12:17:38;;;;;;;8.90;8.10;;;12.80;99.90;;;;;;4959686;29;20951;-63
2020/12/16 12:20:04;;;;;;;9.17;8.37;;;12.80;99.90;;;;;;4958471;29;20838;-65
2020/12/16 12:22:30;;;;;;;10.10;9.10;;;12.80;99.90;;;;;;4958758;28;20479;-64
2020/12/16 12:24:57;;;;;;;8.87;8.07;;;12.90;99.90;;;;;;4958098;28;20452;-65
2020/12/16 12:27:24;;;;;;;9.30;8.43;;;12.90;99.90;;;;;;4959664;28;20463;-63
2020/12/16 12:29:51;;;;;;;8.83;8.03;;;12.90;99.90;;;;;;4958535;29;20496;-64
2020/12/16 12:32:17;;;;;;;10.23;9.30;;;13.00;99.90;;;;;;4958129;29;20476;-64
2020/12/16 12:34:43;;;;;;;9.50;8.70;;;13.00;99.90;;;;;;4957698;29;20510;-65
2020/12/16 12:37:09;;;;;;;9.77;8.97;;;13.00;99.90;;;;;;4958503;29;20964;-63
2020/12/16 12:39:35;;;;;;;11.93;9.43;;;13.00;99.90;;;;;;4957966;29;20822;-64
2020/12/16 12:42:01;;;;;;;9.90;9.10;;;13.20;99.90;;;;;;4957948;29;20479;-65
2020/12/16 12:44:28;;;;;;;11.20;10.17;;;13.10;99.90;;;;;;4958172;29;20459;-64
2020/12/16 12:46:55;;;;;;;11.57;9.70;;;13.20;99.90;;;;;;4957309;28;20462;-64
2020/12/16 12:49:21;;;;;;;11.50;9.53;;;13.30;99.90;;;;;;4958069;28;20462;-65
2020/12/16 12:51:49;;;;;;;11.67;10.50;;;13.30;99.90;;;;;;4957934;29;20479;-64
2020/12/16 12:54:16;;;;;;;13.37;9.97;;;13.30;99.90;;;;;;4957445;29;20876;-63
2020/12/16 12:56:42;;;;;;;11.20;10.10;;;13.30;99.90;;;;;;4957557;28;20565;-64
2020/12/16 12:59:09;;;;;;;11.17;10.17;;;13.30;99.90;;;;;;4957770;28;20451;-63
2020/12/16 13:01:36;;;;;;;10.93;9.80;;;13.40;99.90;;;;;;4957176;29;20479;-62
2020/12/16 13:04:02;;;;;;;9.90;8.60;;;13.30;99.90;;;;;;4956808;29;20456;-63
2020/12/16 13:06:28;;;;;;;10.43;9.50;;;13.40;99.90;;;;;;4956865;29;20455;-65
2020/12/16 13:08:54;;;;;;;9.40;8.57;;;13.40;99.90;;;;;;4956878;29;20827;-63
2020/12/16 13:11:21;;;;;;;9.97;9.10;;;13.30;99.90;;;;;;4956496;29;20570;-64
2020/12/16 13:13:47;;;;;;;10.73;9.87;;;13.30;99.90;;;;;;4956572;28;20483;-64
2020/12/16 13:16:13;;;;;;;13.17;9.17;;;13.40;99.90;;;;;;4956492;29;20456;-64
2020/12/16 13:18:40;;;;;;;9.80;8.83;;;13.40;99.90;;;;;;4956373;29;20973;-64
2020/12/16 13:21:07;;;;;;;9.50;8.60;;;13.40;99.90;;;;;;4956648;28;20472;-64
2020/12/16 13:23:33;;;;;;;9.70;8.90;;;13.30;99.90;;;;;;4956729;29;20452;-63
2020/12/16 13:25:59;;;;;;;9.70;8.80;;;13.30;99.90;;;;;;4956687;29;20448;-64
2020/12/16 13:28:26;;;;;;;8.93;8.13;;;13.30;99.90;;;;;;4956542;29;20444;-64
2020/12/16 13:30:52;;;;;;;9.07;8.13;;;13.40;99.90;;;;;;4956397;29;20483;-63
2020/12/16 13:33:18;;;;;;;8.50;7.70;;;13.30;99.90;;;;;;4956602;29;20459;-63
2020/12/16 13:35:47;;;;;;;8.80;7.90;;;13.20;99.90;;;;;;4956561;29;20459;-64
2020/12/16 13:38:13;;;;;;;9.27;8.10;;;13.30;99.90;;;;;;4956118;29;20645;-64
2020/12/16 13:40:40;;;;;;;7.53;6.93;;;13.30;99.90;;;;;;4956138;29;20479;-63
2020/12/16 13:43:06;;;;;;;8.70;7.80;;;13.30;99.90;;;;;;4956063;28;20467;-63
2020/12/16 13:45:32;;;;;;;9.03;7.20;;;13.30;99.90;;;;;;4956106;29;20455;-64
2020/12/16 13:47:58;;;;;;;8.37;7.17;;;13.30;99.90;;;;;;4956031;29;21021;-64
2020/12/16 13:50:25;;;;;;;10.53;7.33;;;13.30;99.90;;;;;;4956023;29;20480;-63
2020/12/16 13:52:52;;;;;;;9.40;6.97;;;13.30;99.90;;;;;;4956488;29;20494;-64
2020/12/16 13:55:19;;;;;;;7.27;6.67;;;13.40;99.90;;;;;;4956157;28;20471;-63
2020/12/16 13:57:45;;;;;;;7.70;7.10;;;13.40;99.90;;;;;;4955824;29;20550;-62
2020/12/16 14:00:11;;;;;;;6.83;6.23;;;13.40;99.90;;;;;;4954873;28;20938;-62
2020/12/16 14:02:37;;;;;;;7.30;6.70;;;13.30;99.90;;;;;;4955479;28;20487;-63
2020/12/16 14:05:04;;;;;;;8.00;7.30;;;13.30;99.90;;;;;;4955756;29;20810;-63
2020/12/16 14:07:30;;;;;;;6.50;5.97;;;13.20;99.90;;;;;;4955346;28;20824;-63
2020/12/16 14:09:57;;;;;;;7.83;7.23;;;13.30;99.90;;;;;;4955759;29;20479;-63
2020/12/16 14:12:23;;;;;;;8.30;7.60;;;13.30;99.90;;;;;;4955788;29;20475;-63
2020/12/16 14:14:49;;;;;;;7.47;6.80;;;13.30;99.90;;;;;;4956006;29;20482;-65
2020/12/16 14:17:18;;;;;;;7.50;6.90;;;13.30;99.90;;;;;;4955772;29;20451;-64
2020/12/16 14:19:44;;;;;;;6.33;5.93;;;13.40;99.90;;;;;;4955524;29;20913;-64
2020/12/16 14:22:10;;;;;;;7.70;7.03;;;13.30;99.90;;;;;;4955284;28;20483;-63
2020/12/16 14:24:36;;;;;;;7.63;7.00;;;13.30;99.90;;;;;;4955527;29;20861;-63
2020/12/16 14:27:04;;;;;;;9.50;8.60;;;13.30;99.90;;;;;;4955513;29;20455;-65
2020/12/16 14:29:30;;;;;;;10.63;8.47;;;13.30;99.90;;;;;;4955672;29;20455;-63
2020/12/16 14:31:56;;;;;;;9.50;8.70;;;13.30;99.90;;;;;;4955692;29;20480;-63
2020/12/16 14:34:22;;;;;;;8.93;7.67;;;13.20;99.90;;;;;;4955666;29;20459;-63
2020/12/16 14:36:51;;;;;;;9.93;8.30;;;13.10;99.90;;;;;;4956444;28;20452;-63
2020/12/16 14:39:18;;;;;;;9.07;8.27;;;13.10;99.90;;;;;;4955636;29;20456;-63
2020/12/16 14:41:51;;;;;;;8.73;7.93;;;13.10;99.90;;;;;;4955432;28;20472;-63
2020/12/16 14:44:18;;;;;;;9.10;8.17;;;13.10;99.90;;;;;;4955262;29;20455;-63
2020/12/16 14:46:47;;;;;;;9.60;8.73;;;13.00;99.90;;;;;;4955418;28;20467;-63
2020/12/16 14:49:13;;;;;;;9.20;8.40;;;13.00;99.90;;;;;;4955857;28;20490;-64
2020/12/16 14:51:39;;;;;;;9.70;8.80;;;13.00;99.90;;;;;;4955340;29;20495;-63
2020/12/16 14:54:05;;;;;;;10.50;9.50;;;12.90;99.90;;;;;;4955313;29;20456;-64
2020/12/16 14:56:31;;;;;;;10.40;8.97;;;12.90;99.90;;;;;;4955738;29;20459;-63
2020/12/16 14:58:57;;;;;;;10.03;9.07;;;12.90;99.90;;;;;;4955374;28;20482;-63
2020/12/16 15:01:24;;;;;;;9.43;8.43;;;12.90;99.90;;;;;;4963199;29;20480;-63
2020/12/16 15:03:51;;;;;;;11.30;10.03;;;12.90;99.90;;;;;;4967808;29;20456;-63
2020/12/16 15:06:20;;;;;;;11.10;10.00;;;12.90;99.90;;;;;;4967553;29;20462;-63
2020/12/16 15:08:47;;;;;;;10.30;9.20;;;12.80;99.90;;;;;;4967933;29;20472;-63
2020/12/16 15:11:13;;;;;;;11.07;10.07;;;12.80;99.90;;;;;;4961816;28;20491;-64
2020/12/16 15:13:39;;;;;;;11.70;10.50;;;12.70;99.90;;;;;;4959594;29;20459;-63
2020/12/16 15:16:05;;;;;;;14.30;11.33;;;12.60;99.90;;;;;;4959036;29;20997;-63
2020/12/16 15:18:33;;;;;;;11.87;10.67;;;12.50;99.90;;;;;;4958688;29;20463;-64
2020/12/16 15:20:59;;;;;;;12.10;10.40;;;12.50;99.90;;;;;;4958666;29;20561;-63
2020/12/16 15:23:26;;;;;;;12.23;11.13;;;12.40;99.90;;;;;;4958687;29;20510;-63
2020/12/16 15:25:52;;;;;;;12.13;10.93;;;12.30;99.90;;;;;;4958505;28;20455;-63
2020/12/16 15:28:18;;;;;;;13.67;12.30;;;12.20;99.90;;;;;;4958247;29;20455;-63
2020/12/16 15:30:44;;;;;;;12.83;11.60;;;12.20;99.90;;;;;;4958498;29;20510;-63
2020/12/16 15:33:11;;;;;;;12.47;11.37;;;12.10;99.90;;;;;;4958209;28;20461;-62
2020/12/16 15:35:38;;;;;;;14.13;12.57;;;12.00;99.90;;;;;;4959072;29;20455;-63
2020/12/16 15:38:04;;;;;;;12.87;11.50;;;11.90;99.90;;;;;;4958499;29;20471;-63
2020/12/16 15:40:30;;;;;;;14.63;13.13;;;11.90;99.90;;;;;;4958682;28;20455;-66
2020/12/16 15:42:57;;;;;;;15.80;13.73;;;11.70;99.90;;;;;;4959201;28;20456;-63
2020/12/16 15:45:23;;;;;;;15.10;13.50;;;11.70;99.90;;;;;;4958386;29;20796;-63
2020/12/16 15:47:49;;;;;;;17.43;14.20;;;11.60;99.90;;;;;;4958269;29;20467;-63
2020/12/16 15:50:15;;;;;;;17.00;15.30;;;11.50;99.90;;;;;;4958006;29;20482;-63
2020/12/16 15:52:42;;;;;;;15.10;13.43;;;11.40;99.90;;;;;;4958062;29;20455;-62
2020/12/16 15:55:08;;;;;;;19.27;15.20;;;11.30;99.90;;;;;;4958171;29;20463;-63
2020/12/16 15:57:35;;;;;;;18.27;16.23;;;11.30;99.90;;;;;;4957827;29;20572;-63
2020/12/16 16:00:01;;;;;;;17.43;15.80;;;11.20;99.90;;;;;;4957744;29;20458;-62
2020/12/16 16:02:27;;;;;;;17.07;15.27;;;11.20;99.90;;;;;;4957738;29;20847;-61
2020/12/16 16:04:54;;;;;;;15.53;13.90;;;11.10;99.90;;;;;;4958163;29;20463;-62
2020/12/16 16:07:20;;;;;;;20.70;14.87;;;11.10;99.90;;;;;;4958178;28;20467;-63
2020/12/16 16:09:47;;;;;;;17.40;15.60;;;11.10;99.90;;;;;;4957818;29;20456;-64
2020/12/16 16:12:13;;;;;;;16.20;14.70;;;11.00;99.90;;;;;;4958107;28;20475;-63
2020/12/16 16:14:39;;;;;;;16.97;15.20;;;11.00;99.90;;;;;;4957868;28;20458;-62
2020/12/16 16:17:05;;;;;;;17.70;15.70;;;10.90;99.90;;;;;;4957571;28;20954;-62
2020/12/16 16:19:32;;;;;;;17.93;16.03;;;10.90;99.90;;;;;;4957868;28;20452;-63
2020/12/16 16:22:04;;;;;;;22.07;17.40;;;10.90;99.90;;;;;;4957237;28;20836;-62
2020/12/16 16:24:31;;;;;;;17.00;15.20;;;10.80;99.90;;;;;;4957991;29;20468;-62
2020/12/16 16:26:58;;;;;;;17.83;15.90;;;10.80;99.90;;;;;;4957608;29;20440;-65
2020/12/16 16:29:26;;;;;;;16.43;14.73;;;10.80;99.90;;;;;;4957567;28;20478;-63
2020/12/16 16:31:53;;;;;;;16.53;13.77;;;10.70;99.90;;;;;;4957384;29;20483;-62
2020/12/16 16:34:19;;;;;;;25.53;15.23;;;10.70;99.90;;;;;;4957311;29;20471;-64
2020/12/16 16:36:46;;;;;;;19.50;13.47;;;10.70;99.90;;;;;;4960722;28;20451;-64
2020/12/16 16:39:13;;;;;;;17.93;13.90;;;10.70;99.90;;;;;;4957538;29;20462;-64
2020/12/16 16:41:44;;;;;;;19.20;13.10;;;10.80;99.90;;;;;;4957200;29;20472;-64
2020/12/16 16:44:11;;;;;;;15.60;13.00;;;10.80;99.90;;;;;;4957431;29;20935;-62
2020/12/16 16:46:38;;;;;;;16.13;14.43;;;10.80;99.90;;;;;;4958059;28;20570;-64
2020/12/16 16:49:04;;;;;;;15.83;13.93;;;10.80;99.90;;;;;;4957540;28;20472;-63
2020/12/16 16:51:31;;;;;;;15.67;13.73;;;10.80;99.90;;;;;;4957135;29;20570;-64
2020/12/16 16:53:57;;;;;;;16.90;12.90;;;10.80;99.90;;;;;;4956836;29;20946;-64
2020/12/16 16:56:31;;;;;;;15.03;13.60;;;10.80;99.90;;;;;;4957113;29;20510;-64
2020/12/16 16:58:57;;;;;;;18.60;14.00;;;10.70;99.90;;;;;;4956976;29;20542;-64
2020/12/16 17:01:26;;;;;;;18.30;13.67;;;10.60;99.90;;;;;;4956630;28;20479;-64
2020/12/16 17:03:53;;;;;;;19.30;13.83;;;10.60;99.90;;;;;;4957162;28;20458;-64
2020/12/16 17:06:19;;;;;;;19.30;13.23;;;10.60;99.90;;;;;;4956822;29;20456;-62
2020/12/16 17:08:46;;;;;;;19.63;14.40;;;10.60;99.90;;;;;;4957269;29;20458;-62
2020/12/16 17:11:12;;;;;;;17.40;14.83;;;10.60;99.90;;;;;;4956707;29;20809;-61
2020/12/16 17:13:38;;;;;;;17.33;14.97;;;10.50;99.90;;;;;;4957262;29;20467;-62
2020/12/16 17:16:04;;;;;;;20.43;14.40;;;10.60;99.90;;;;;;4957334;29;20456;-64
2020/12/16 17:18:32;;;;;;;20.57;14.50;;;10.60;99.90;;;;;;4956997;29;20568;-62
2020/12/16 17:20:58;;;;;;;15.67;13.97;;;10.50;99.90;;;;;;4956658;29;20838;-63
2020/12/16 17:23:25;;;;;;;15.87;14.00;;;10.50;99.90;;;;;;4957144;29;20511;-63
2020/12/16 17:25:52;;;;;;;16.23;13.33;;;10.40;99.90;;;;;;4956566;29;20463;-63
2020/12/16 17:28:18;;;;;;;15.90;14.20;;;10.40;99.90;;;;;;4956508;29;20478;-63
2020/12/16 17:30:44;;;;;;;15.97;14.37;;;10.50;99.90;;;;;;4956261;29;20994;-63
2020/12/16 17:33:11;;;;;;;16.43;14.20;;;10.40;99.90;;;;;;4956846;28;20463;-63
2020/12/16 17:35:38;;;;;;;15.80;13.10;;;10.30;99.90;;;;;;4956606;29;20462;-63
2020/12/16 17:38:04;;;;;;;15.30;13.80;;;10.30;99.90;;;;;;4956514;28;20455;-62
2020/12/16 17:40:30;;;;;;;15.37;13.67;;;10.20;99.90;;;;;;4956419;29;20462;-63